Time;durP1;ratioP1;P1;durP2;ratioP2;P2;SDS_P1;SDS_P2;PMS_P1;PMS_P2;Temp;Humidity;BMP_temperature;BMP_pressure;BME280_temperature;BME280_humidity;BME280_pressure;Samples;Min_cycle;Max_cycle;Signal;HPM_P1;HPM_P2
2024/04/12 00:01:12;;;;;;;10.63;9.00;;;;;;;;;;6093191;23;20022;-95
2024/04/12 00:03:38;;;;;;;12.07;9.43;;;;;;;;;;6093751;23;20003;-95
2024/04/12 00:06:20;;;;;;;12.05;9.90;;;;;;;;;;6093006;23;20085;-95
2024/04/12 00:08:47;;;;;;;15.20;13.65;;;;;;;;;;6093037;23;20082;-95
2024/04/12 00:11:20;;;;;;;12.77;10.95;;;;;;;;;;6092717;23;20064;-96
2024/04/12 00:13:47;;;;;;;13.43;11.85;;;;;;;;;;6092991;23;20013;-94
2024/04/12 00:16:17;;;;;;;14.68;11.93;;;;;;;;;;6093149;23;20018;-95
2024/04/12 00:18:45;;;;;;;15.60;11.23;;;;;;;;;;6092942;23;20427;-94
2024/04/12 00:21:12;;;;;;;14.52;11.85;;;;;;;;;;6092707;23;20072;-95
2024/04/12 00:23:41;;;;;;;13.82;12.07;;;;;;;;;;6092867;23;20336;-95
2024/04/12 00:26:07;;;;;;;12.02;10.15;;;;;;;;;;6092270;23;20025;-95
2024/04/12 00:28:34;;;;;;;10.48;9.02;;;;;;;;;;6092635;23;20007;-95
2024/04/12 00:31:01;;;;;;;14.68;10.88;;;;;;;;;;6092713;23;20003;-95
2024/04/12 00:33:31;;;;;;;14.95;12.57;;;;;;;;;;6092841;23;20011;-95
2024/04/12 00:35:59;;;;;;;21.95;13.40;;;;;;;;;;6092978;23;20007;-95
2024/04/12 00:38:25;;;;;;;16.20;10.88;;;;;;;;;;6092727;23;20015;-96
2024/04/12 00:40:52;;;;;;;18.15;12.00;;;;;;;;;;6092821;23;20068;-95
2024/04/12 00:43:19;;;;;;;14.65;11.50;;;;;;;;;;6092810;23;20038;-95
2024/04/12 00:45:49;;;;;;;14.77;12.43;;;;;;;;;;6092846;23;20022;-94
2024/04/12 00:48:16;;;;;;;16.80;14.20;;;;;;;;;;6092568;23;20022;-95
2024/04/12 00:50:46;;;;;;;14.30;12.63;;;;;;;;;;6092596;23;20427;-96
2024/04/12 00:53:22;;;;;;;16.45;12.40;;;;;;;;;;6092611;23;20011;-95
2024/04/12 00:56:03;;;;;;;17.10;13.90;;;;;;;;;;6093772;23;20006;-96
2024/04/12 00:58:32;;;;;;;13.27;11.70;;;;;;;;;;6092577;23;20006;-95
2024/04/12 01:01:17;;;;;;;18.05;14.85;;;;;;;;;;6092422;23;20069;-95
2024/04/12 01:03:47;;;;;;;13.95;11.00;;;;;;;;;;6092937;23;20014;-96
2024/04/12 01:06:16;;;;;;;17.10;12.40;;;;;;;;;;6092909;23;20014;-95
2024/04/12 01:08:46;;;;;;;17.02;13.18;;;;;;;;;;6092618;23;20018;-95
2024/04/12 01:11:13;;;;;;;18.70;13.75;;;;;;;;;;6092689;23;20006;-95
2024/04/12 01:13:43;;;;;;;16.73;13.13;;;;;;;;;;6092471;23;20012;-95
2024/04/12 01:16:10;;;;;;;18.80;13.05;;;;;;;;;;6092385;23;20018;-94
2024/04/12 01:18:37;;;;;;;17.63;15.43;;;;;;;;;;6092997;23;20133;-96
2024/04/12 01:21:10;;;;;;;23.60;21.30;;;;;;;;;;6092131;23;20011;-95
2024/04/12 01:23:38;;;;;;;21.38;19.42;;;;;;;;;;6092774;23;20010;-95
2024/04/12 01:26:05;;;;;;;20.70;18.55;;;;;;;;;;6093750;23;20007;-94
2024/04/12 01:28:35;;;;;;;19.77;14.77;;;;;;;;;;6092648;23;20081;-95
2024/04/12 01:31:02;;;;;;;20.92;14.38;;;;;;;;;;6092875;23;20025;-95
2024/04/12 01:33:31;;;;;;;17.88;15.40;;;;;;;;;;6092324;23;20010;-96
2024/04/12 01:36:05;;;;;;;17.45;14.10;;;;;;;;;;6092724;23;20017;-95
2024/04/12 01:38:38;;;;;;;15.98;14.23;;;;;;;;;;6093796;23;20006;-95
2024/04/12 01:41:08;;;;;;;15.23;12.45;;;;;;;;;;6093702;23;20313;-96
2024/04/12 01:43:38;;;;;;;20.23;13.93;;;;;;;;;;6093594;23;20073;-94
2024/04/12 01:46:08;;;;;;;17.13;13.35;;;;;;;;;;6093993;23;20057;-95
2024/04/12 01:48:35;;;;;;;19.02;13.68;;;;;;;;;;6093500;23;20022;-95
2024/04/12 01:51:02;;;;;;;17.92;12.77;;;;;;;;;;6094360;23;20038;-94
2024/04/12 01:53:36;;;;;;;18.42;12.10;;;;;;;;;;6093858;23;20498;-95
2024/04/12 01:56:03;;;;;;;17.48;12.25;;;;;;;;;;6096054;23;20002;-94
2024/04/12 01:58:29;;;;;;;13.63;11.32;;;;;;;;;;6098545;23;20006;-95
2024/04/12 02:00:55;;;;;;;16.52;11.75;;;;;;;;;;6094029;23;20010;-94
2024/04/12 02:03:21;;;;;;;16.10;11.65;;;;;;;;;;6093770;23;20011;-95
2024/04/12 02:05:49;;;;;;;16.10;12.10;;;;;;;;;;6093489;23;20375;-95
2024/04/12 02:08:18;;;;;;;14.15;11.82;;;;;;;;;;6093277;23;20344;-95
2024/04/12 02:10:48;;;;;;;18.63;12.32;;;;;;;;;;6093691;23;20006;-95
2024/04/12 02:13:20;;;;;;;15.20;11.88;;;;;;;;;;6093620;23;20016;-96
2024/04/12 02:15:53;;;;;;;13.45;9.90;;;;;;;;;;6093511;23;20007;-95
2024/04/12 02:18:20;;;;;;;16.88;11.50;;;;;;;;;;6093455;23;20014;-95
2024/04/12 02:20:46;;;;;;;13.85;10.50;;;;;;;;;;6093446;23;20025;-95
2024/04/12 02:23:13;;;;;;;16.65;11.90;;;;;;;;;;6093223;23;20884;-95
2024/04/12 02:25:41;;;;;;;15.40;10.95;;;;;;;;;;6093180;23;20007;-95
2024/04/12 02:28:09;;;;;;;15.20;10.40;;;;;;;;;;6093686;23;20443;-95
2024/04/12 02:30:43;;;;;;;17.20;11.27;;;;;;;;;;6094157;23;20009;-95
2024/04/12 02:33:16;;;;;;;14.82;11.30;;;;;;;;;;6093377;23;20006;-95
2024/04/12 02:35:42;;;;;;;;;;;;;;;;;;6093786;23;20029;-96
2024/04/12 02:38:16;;;;;;;11.60;9.50;;;;;;;;;;6221743;23;19901;-95
2024/04/12 02:40:42;;;;;;;14.60;10.23;;;;;;;;;;6093510;23;20015;-95
2024/04/12 02:43:15;;;;;;;13.93;10.88;;;;;;;;;;6093854;23;20486;-95
2024/04/12 02:45:54;;;;;;;17.55;11.88;;;;;;;;;;6106847;22;19987;-94
2024/04/12 02:48:20;;;;;;;14.98;9.52;;;;;;;;;;6119210;22;20022;-95
2024/04/12 02:50:56;;;;;;;14.27;9.90;;;;;;;;;;6109469;22;20038;-95
2024/04/12 02:53:23;;;;;;;14.30;10.73;;;;;;;;;;6101549;23;20018;-94
2024/04/12 02:56:02;;;;;;;15.80;11.10;;;;;;;;;;6093079;23;20009;-95
2024/04/12 02:58:41;;;;;;;13.43;10.25;;;;;;;;;;6093240;23;20012;-95
2024/04/12 03:01:10;;;;;;;13.85;10.10;;;;;;;;;;6093062;23;20049;-95
2024/04/12 03:03:41;;;;;;;13.50;10.23;;;;;;;;;;6093372;23;20003;-95
2024/04/12 03:06:09;;;;;;;16.45;12.70;;;;;;;;;;6093128;23;20033;-95
2024/04/12 03:08:40;;;;;;;12.65;9.77;;;;;;;;;;6093311;23;20397;-95
2024/04/12 03:11:14;;;;;;;17.15;10.93;;;;;;;;;;6093147;23;20428;-96
2024/04/12 03:13:40;;;;;;;;;;;;;;;;;;6093919;23;20006;-94
2024/04/12 03:16:19;;;;;;;17.55;12.25;;;;;;;;;;6094584;23;19955;-95
2024/04/12 03:18:51;;;;;;;18.40;11.73;;;;;;;;;;6093057;23;20013;-95
2024/04/12 03:21:18;;;;;;;15.75;12.52;;;;;;;;;;6093326;23;20014;-95
2024/04/12 03:23:45;;;;;;;16.05;11.57;;;;;;;;;;6093469;23;20010;-95
2024/04/12 03:26:11;;;;;;;15.20;11.07;;;;;;;;;;6093176;23;20007;-95
2024/04/12 03:28:39;;;;;;;14.15;12.18;;;;;;;;;;6093724;23;20010;-96
2024/04/12 03:31:07;;;;;;;15.05;11.40;;;;;;;;;;6093352;23;20017;-95
2024/04/12 03:33:43;;;;;;;17.60;12.15;;;;;;;;;;6093154;23;20140;-95
2024/04/12 03:41:58;;;;;;;18.45;11.65;;;;;;;;;;6104734;23;20014;-95
2024/04/12 03:44:25;;;;;;;16.23;11.45;;;;;;;;;;6093132;23;20097;-96
2024/04/12 03:46:52;;;;;;;16.35;10.63;;;;;;;;;;6093187;23;20015;-95
2024/04/12 03:49:21;;;;;;;16.85;12.63;;;;;;;;;;6093157;23;20421;-95
2024/04/12 03:51:49;;;;;;;17.25;11.30;;;;;;;;;;6092998;23;20375;-95
2024/04/12 03:54:18;;;;;;;18.15;12.23;;;;;;;;;;6092999;23;20318;-95
2024/04/12 03:56:56;;;;;;;15.07;11.57;;;;;;;;;;6093384;23;20010;-94
2024/04/12 03:59:24;;;;;;;14.60;10.90;;;;;;;;;;6093198;23;20018;-94
2024/04/12 04:01:54;;;;;;;16.67;12.10;;;;;;;;;;6093133;23;20337;-95
2024/04/12 04:04:25;;;;;;;18.75;12.57;;;;;;;;;;6093349;23;20063;-95
2024/04/12 04:06:55;;;;;;;16.60;12.32;;;;;;;;;;6093068;23;20013;-95
2024/04/12 04:09:22;;;;;;;17.45;11.68;;;;;;;;;;6092945;23;20004;-95
2024/04/12 04:11:48;;;;;;;15.00;11.80;;;;;;;;;;6093151;23;20487;-95
2024/04/12 04:14:19;;;;;;;18.80;12.25;;;;;;;;;;6092797;23;20030;-94
2024/04/12 04:16:49;;;;;;;19.33;11.80;;;;;;;;;;6092950;23;20017;-95
2024/04/12 04:19:17;;;;;;;16.88;12.13;;;;;;;;;;6093654;23;20017;-94
2024/04/12 04:21:46;;;;;;;18.38;11.70;;;;;;;;;;6093070;23;20021;-95
2024/04/12 04:24:13;;;;;;;18.10;12.23;;;;;;;;;;6093904;23;20009;-94
2024/04/12 04:26:40;;;;;;;19.10;12.30;;;;;;;;;;6093545;23;20029;-96
2024/04/12 04:29:09;;;;;;;17.33;13.10;;;;;;;;;;6092945;23;20003;-93
2024/04/12 04:31:52;;;;;;;17.42;13.60;;;;;;;;;;6093399;23;20006;-93
2024/04/12 04:34:19;;;;;;;17.23;12.20;;;;;;;;;;6093907;23;20010;-93
2024/04/12 04:36:49;;;;;;;14.93;12.07;;;;;;;;;;6096654;23;20060;-96
2024/04/12 04:39:23;;;;;;;15.13;11.45;;;;;;;;;;6096715;23;20006;-94
2024/04/12 04:41:52;;;;;;;14.95;10.70;;;;;;;;;;6093074;23;20159;-96
2024/04/12 04:44:18;;;;;;;20.58;11.68;;;;;;;;;;6094767;23;20006;-95
2024/04/12 05:20:38;;;;;;;36.38;33.83;;;;;;;;;;6321008;22;20021;-96
2024/04/12 05:23:55;;;;;;;45.05;42.13;;;;;;;;;;6224130;23;20460;-95
2024/04/12 05:26:28;;;;;;;82.65;77.75;;;;;;;;;;6195340;23;20037;-95
2024/04/12 05:35:07;;;;;;;;;;;;;;;;;;;;;
2024/04/12 05:37:52;;;;;;;67.95;63.70;;;;;;;;;;6353186;22;20022;-95
2024/04/12 05:40:22;;;;;;;77.80;72.60;;;;;;;;;;6324671;22;20064;-95
2024/04/12 05:42:53;;;;;;;72.18;67.78;;;;;;;;;;6319755;22;20035;-95
2024/04/12 05:45:19;;;;;;;61.97;58.10;;;;;;;;;;6315203;22;20002;-95
2024/04/12 05:47:59;;;;;;;62.95;59.15;;;;;;;;;;6315901;22;20422;-96
2024/04/12 05:51:50;;;;;;;;;;;;;;;;;;;;;
2024/04/12 06:14:42;;;;;;;21.63;19.52;;;;;;;;;;6105366;23;20026;-95
2024/04/12 06:17:53;;;;;;;18.63;17.02;;;;;;;;;;6126473;23;20057;-95
2024/04/12 06:20:52;;;;;;;14.77;13.40;;;;;;;;;;6103420;23;20136;-94
2024/04/12 06:38:52;;;;;;;10.48;9.50;;;;;;;;;;6120568;23;20013;-95
2024/04/12 06:41:23;;;;;;;9.27;8.40;;;;;;;;;;6130797;23;20505;-95
2024/04/12 06:47:18;;;;;;;10.00;9.00;;;;;;;;;;6107419;23;20037;-95
2024/04/12 06:49:47;;;;;;;9.07;8.13;;;;;;;;;;6127473;23;20085;-94
2024/04/12 07:07:40;;;;;;;9.57;7.15;;;;;;;;;;6315651;22;20037;-92
2024/04/12 07:10:50;;;;;;;;;;;;;;;;;;;;;
2024/04/12 07:13:29;;;;;;;6.70;6.05;;;;;;;;;;6318150;22;20065;-92
2024/04/12 07:19:26;;;;;;;8.05;5.88;;;;;;;;;;6260298;22;20003;-94
2024/04/12 07:22:18;;;;;;;6.20;4.93;;;;;;;;;;6312078;22;20381;-92
2024/04/12 07:25:01;;;;;;;6.75;4.72;;;;;;;;;;6285942;22;20031;-93
2024/04/12 07:31:06;;;;;;;7.22;6.60;;;;;;;;;;6261453;22;20015;-94
2024/04/12 07:33:34;;;;;;;8.25;7.47;;;;;;;;;;6226662;23;20612;-93
2024/04/12 07:36:18;;;;;;;6.43;4.85;;;;;;;;;;6224059;23;20004;-94
2024/04/12 07:39:04;;;;;;;7.18;4.68;;;;;;;;;;6194183;23;20088;-94
2024/04/12 07:41:49;;;;;;;3.85;3.47;;;;;;;;;;6185629;23;20036;-91
2024/04/12 07:44:18;;;;;;;5.80;4.20;;;;;;;;;;6161148;23;20037;-91
2024/04/12 07:50:08;;;;;;;5.30;3.35;;;;;;;;;;6185731;23;20109;-92
2024/04/12 07:52:38;;;;;;;5.45;3.78;;;;;;;;;;6160139;23;20031;-92
2024/04/12 07:55:09;;;;;;;9.43;3.40;;;;;;;;;;6160175;23;20004;-93
2024/04/12 08:07:13;;;;;;;5.13;3.67;;;;;;;;;;6042059;23;20026;-92
2024/04/12 08:18:54;;;;;;;5.45;3.33;;;;;;;;;;6097620;23;20098;-94
2024/04/12 08:21:37;;;;;;;;;;;;;;;;;;;;;
2024/04/12 08:24:37;;;;;;;;;;;;;;;;;;;;;
2024/04/12 08:27:13;;;;;;;6.75;4.32;;;;;;;;;;6223087;22;20039;-94
2024/04/12 08:29:43;;;;;;;4.72;3.55;;;;;;;;;;6311725;22;19999;-95
2024/04/12 08:32:13;;;;;;;4.35;2.78;;;;;;;;;;6286965;22;20082;-94
2024/04/12 08:34:49;;;;;;;4.90;3.22;;;;;;;;;;6285332;22;20018;-92
2024/04/12 08:37:17;;;;;;;4.68;3.42;;;;;;;;;;6283716;22;20332;-94
2024/04/12 08:39:52;;;;;;;3.35;1.50;;;;;;;;;;6282749;22;20007;-96
2024/04/12 08:45:30;;;;;;;4.50;2.70;;;;;;;;;;6307020;22;20068;-95
2024/04/12 08:48:01;;;;;;;6.32;3.83;;;;;;;;;;6291370;22;20003;-91
2024/04/12 08:50:39;;;;;;;6.75;3.20;;;;;;;;;;6304252;22;20026;-95
2024/04/12 08:53:11;;;;;;;5.13;3.78;;;;;;;;;;6300890;22;20058;-94
2024/04/12 08:55:56;;;;;;;5.30;4.35;;;;;;;;;;6257472;23;20050;-95
2024/04/12 08:58:23;;;;;;;5.85;3.70;;;;;;;;;;6220158;23;20008;-95
2024/04/12 09:00:53;;;;;;;5.05;2.80;;;;;;;;;;6219891;23;20012;-94
2024/04/12 09:06:29;;;;;;;6.55;4.53;;;;;;;;;;6253565;23;20027;-95
2024/04/12 09:08:55;;;;;;;5.80;4.18;;;;;;;;;;6221424;23;20027;-95
2024/04/12 09:11:25;;;;;;;6.97;5.00;;;;;;;;;;6220458;23;20361;-95
2024/04/12 09:14:20;;;;;;;5.78;3.05;;;;;;;;;;6221234;23;20410;-95
2024/04/12 09:17:14;;;;;;;6.50;5.03;;;;;;;;;;6219766;23;20000;-95
2024/04/12 09:19:45;;;;;;;7.47;5.43;;;;;;;;;;6211238;23;20023;-95
2024/04/12 09:22:17;;;;;;;9.83;5.83;;;;;;;;;;6219596;23;20028;-96
2024/04/12 09:24:44;;;;;;;;;;;;;;;;;;6220191;23;20247;-96
2024/04/12 09:27:20;;;;;;;6.25;5.43;;;;;;;;;;6264840;22;19906;-90
2024/04/12 09:29:54;;;;;;;7.03;6.38;;;;;;;;;;6281545;22;20003;-91
2024/04/12 09:35:11;;;;;;;9.50;7.95;;;;;;;;;;6308685;22;20014;-92
2024/04/12 09:37:43;;;;;;;9.77;8.52;;;;;;;;;;6281296;22;20004;-90
2024/04/12 10:41:28;;;;;;;;;;;;;;;;;;;;;
2024/04/12 11:35:45;;;;;;;27.92;26.25;;;;;;;;;;6374403;22;20254;-95
2024/04/12 11:38:54;;;;;;;;;;;;;;;;;;;;;
2024/04/12 12:23:21;;;;;;;25.52;23.83;;;;;;;;;;6357364;22;20022;-91
2024/04/12 12:25:49;;;;;;;23.38;21.88;;;;;;;;;;6318221;22;20032;-91
2024/04/12 12:28:26;;;;;;;23.83;22.15;;;;;;;;;;6344567;22;20002;-92
2024/04/12 12:31:00;;;;;;;23.45;21.90;;;;;;;;;;6343975;22;20057;-94
2024/04/12 12:33:38;;;;;;;27.05;25.35;;;;;;;;;;6362369;22;20013;-93
2024/04/12 12:36:17;;;;;;;22.70;21.27;;;;;;;;;;6343791;22;20013;-92
2024/04/12 12:38:48;;;;;;;30.10;28.27;;;;;;;;;;6344549;22;20002;-91
2024/04/12 12:53:36;;;;;;;27.48;25.67;;;;;;;;;;6373254;22;20013;-94
2024/04/12 12:56:06;;;;;;;24.63;23.13;;;;;;;;;;6345556;22;20006;-94
2024/04/12 12:58:47;;;;;;;25.85;24.17;;;;;;;;;;6345413;22;20003;-94
2024/04/12 13:01:17;;;;;;;26.10;24.42;;;;;;;;;;6347295;22;20002;-94
2024/04/12 13:07:18;;;;;;;;;;;;;;;;;;;;;
2024/04/12 13:12:51;;;;;;;21.42;19.95;;;;;;;;;;6213035;23;20039;-95
2024/04/12 13:22:04;;;;;;;24.80;23.33;;;;;;;;;;6097000;23;20089;-94
2024/04/12 13:24:33;;;;;;;26.10;24.52;;;;;;;;;;6119484;23;20041;-93
2024/04/12 13:26:59;;;;;;;27.10;25.45;;;;;;;;;;6163442;23;20036;-94
2024/04/12 13:29:33;;;;;;;28.85;27.17;;;;;;;;;;6161965;23;20008;-95
2024/04/12 13:32:08;;;;;;;25.55;23.73;;;;;;;;;;6162131;23;20447;-89
2024/04/12 13:35:01;;;;;;;27.27;25.58;;;;;;;;;;6155680;23;20010;-92
2024/04/12 13:37:36;;;;;;;27.40;25.70;;;;;;;;;;6176005;22;20004;-90
2024/04/12 13:42:54;;;;;;;29.98;28.27;;;;;;;;;;6217062;23;20430;-90
2024/04/12 13:51:28;;;;;;;29.67;27.98;;;;;;;;;;6221142;23;20031;-88
2024/04/12 13:53:58;;;;;;;30.20;28.13;;;;;;;;;;6226951;22;20459;-89
2024/04/12 13:56:37;;;;;;;32.50;30.55;;;;;;;;;;6308272;22;20003;-93
2024/04/12 13:59:10;;;;;;;30.35;28.50;;;;;;;;;;6308931;22;20367;-91
2024/04/12 14:01:49;;;;;;;44.08;41.35;;;;;;;;;;6309883;22;20007;-93
2024/04/12 14:04:26;;;;;;;32.38;30.38;;;;;;;;;;6308916;22;20011;-92
2024/04/12 14:06:53;;;;;;;32.83;30.85;;;;;;;;;;6311002;22;20458;-93
2024/04/12 14:09:41;;;;;;;29.42;27.65;;;;;;;;;;6315528;22;20021;-93
2024/04/12 14:15:15;;;;;;;;;;;;;;;;;;6344274;22;20055;-95
2024/04/12 14:18:01;;;;;;;38.20;35.80;;;;;;;;;;6318415;22;19898;-95
2024/04/12 14:33:31;;;;;;;43.67;41.08;;;;;;;;;;6334825;22;20272;31
2024/04/12 14:39:28;;;;;;;50.35;47.33;;;;;;;;;;6281182;22;20348;-95
2024/04/12 14:41:57;;;;;;;35.88;33.78;;;;;;;;;;6343447;22;20087;-94
2024/04/12 14:44:43;;;;;;;32.85;30.95;;;;;;;;;;6356281;22;20015;-96
2024/04/12 14:47:16;;;;;;;44.00;41.45;;;;;;;;;;6341325;22;20011;-93
2024/04/12 14:50:00;;;;;;;41.83;39.20;;;;;;;;;;6340094;22;19994;-95
2024/04/12 14:57:51;;;;;;;34.85;32.88;;;;;;;;;;6352684;22;20023;-96
2024/04/12 15:52:12;;;;;;;48.73;45.40;;;;;;;;;;6250925;23;20065;-96
2024/04/12 15:55:08;;;;;;;54.33;50.25;;;;;;;;;;6247231;23;20488;-93
2024/04/12 16:11:39;;;;;;;53.28;49.88;;;;;;;;;;6340597;22;20064;-94
2024/04/12 16:14:08;;;;;;;71.90;67.45;;;;;;;;;;6312896;22;20002;-93
2024/04/12 16:16:43;;;;;;;62.95;58.90;;;;;;;;;;6321939;22;20137;-92
2024/04/12 16:22:27;;;;;;;69.85;65.72;;;;;;;;;;6308731;22;20332;-94
2024/04/12 16:25:14;;;;;;;;;;;;;;;;;;;;;
2024/04/12 16:27:53;;;;;;;62.55;58.97;;;;;;;;;;6307469;22;20072;-93
2024/04/12 16:30:32;;;;;;;55.45;51.95;;;;;;;;;;6282706;22;20014;-94
2024/04/12 16:33:05;;;;;;;66.38;62.40;;;;;;;;;;6220576;23;20000;-94
2024/04/12 16:35:55;;;;;;;67.63;63.28;;;;;;;;;;6185651;23;20004;-94
2024/04/12 16:38:33;;;;;;;68.15;63.90;;;;;;;;;;6186822;23;20016;-93
2024/04/12 16:41:06;;;;;;;72.65;68.15;;;;;;;;;;6184001;23;20005;-93
2024/04/12 16:43:49;;;;;;;70.63;66.35;;;;;;;;;;6183756;23;20127;-93
2024/04/12 16:46:23;;;;;;;72.88;68.65;;;;;;;;;;6184750;23;20440;-92
2024/04/12 16:48:56;;;;;;;61.90;58.20;;;;;;;;;;6183937;23;20060;-94
2024/04/12 16:51:49;;;;;;;78.30;73.70;;;;;;;;;;6186010;23;20065;-93
2024/04/12 16:54:25;;;;;;;;;;;;;;;;;;6183445;23;20009;-96
2024/04/12 17:00:03;;;;;;;57.05;52.92;;;;;;;;;;6155184;23;20006;-93
2024/04/12 17:02:30;;;;;;;58.30;54.33;;;;;;;;;;6168411;23;20040;-94
2024/04/12 17:08:13;;;;;;;56.60;52.47;;;;;;;;;;6276129;22;20083;-92
2024/04/12 17:10:42;;;;;;;57.88;54.08;;;;;;;;;;6343916;22;20097;-93
2024/04/12 17:13:09;;;;;;;84.85;78.95;;;;;;;;;;6343608;22;20009;-94
2024/04/12 17:15:55;;;;;;;66.15;60.97;;;;;;;;;;6352887;22;20005;-92
2024/04/12 17:18:21;;;;;;;146.43;137.50;;;;;;;;;;6344983;22;20009;-94
2024/04/12 17:21:03;;;;;;;52.28;48.35;;;;;;;;;;6343782;22;20006;-92
2024/04/12 17:23:29;;;;;;;87.68;82.32;;;;;;;;;;6344122;22;20015;-92
2024/04/12 17:26:33;;;;;;;82.40;77.38;;;;;;;;;;6345762;22;20085;-93
2024/04/12 17:32:28;;;;;;;61.35;57.05;;;;;;;;;;6309842;22;20007;-95
2024/04/12 17:34:54;;;;;;;118.35;111.53;;;;;;;;;;6195326;23;20087;-93
2024/04/12 17:37:26;;;;;;;119.88;112.50;;;;;;;;;;6192807;23;20032;-93
2024/04/12 17:40:04;;;;;;;;;;;;;;;;;;;;;
2024/04/12 17:42:33;;;;;;;126.10;118.88;;;;;;;;;;6293165;22;20033;-94
2024/04/12 17:45:06;;;;;;;116.60;109.60;;;;;;;;;;6363886;22;20031;-92
2024/04/12 17:47:35;;;;;;;91.55;86.22;;;;;;;;;;6351980;22;20006;-94
2024/04/12 17:50:16;;;;;;;96.72;91.20;;;;;;;;;;6344574;22;20028;-95
2024/04/12 17:52:45;;;;;;;110.70;104.38;;;;;;;;;;6344561;22;20063;-94
2024/04/12 17:55:19;;;;;;;108.95;102.35;;;;;;;;;;6343909;22;20002;-94
2024/04/12 17:57:52;;;;;;;112.90;106.60;;;;;;;;;;6344072;22;20470;-94
2024/04/12 18:03:54;;;;;;;62.67;59.05;;;;;;;;;;6245688;23;20049;-94
2024/04/12 18:06:20;;;;;;;20.40;18.80;;;;;;;;;;6245318;23;20014;-94
2024/04/12 18:08:59;;;;;;;;;;;;;;;;;;;;;
2024/04/12 18:11:48;;;;;;;81.57;76.72;;;;;;;;;;6248826;23;20079;-95
2024/04/12 18:14:24;;;;;;;22.88;21.17;;;;;;;;;;6296429;22;20002;-95
2024/04/12 18:16:56;;;;;;;86.20;81.18;;;;;;;;;;6346139;22;19999;-93
2024/04/12 18:22:36;;;;;;;22.63;20.30;;;;;;;;;;6377292;22;20442;-95
2024/04/12 18:25:28;;;;;;;28.58;26.08;;;;;;;;;;6257006;23;20008;-95
2024/04/12 18:27:58;;;;;;;18.02;13.18;;;;;;;;;;6253314;23;20137;-96
2024/04/12 18:30:31;;;;;;;21.80;19.85;;;;;;;;;;6340574;22;20097;-95
2024/04/12 18:33:08;;;;;;;20.85;18.67;;;;;;;;;;6353248;22;20028;-96
2024/04/12 18:36:01;;;;;;;31.98;29.55;;;;;;;;;;6352930;22;20009;-95
2024/04/12 18:46:59;;;;;;;10.40;8.32;;;;;;;;;;6379460;22;20020;-96
2024/04/12 18:49:45;;;;;;;12.43;11.20;;;;;;;;;;6349361;22;20002;-95
2024/04/12 18:52:14;;;;;;;7.05;5.90;;;;;;;;;;6348733;22;20002;-96
2024/04/12 18:54:52;;;;;;;9.07;6.50;;;;;;;;;;6370259;22;20033;-96
2024/04/12 18:57:21;;;;;;;9.32;6.22;;;;;;;;;;6348865;22;20006;-95
2024/04/12 18:59:47;;;;;;;16.77;15.07;;;;;;;;;;6348426;22;20420;-94
2024/04/12 19:02:13;;;;;;;9.75;6.40;;;;;;;;;;6349038;22;20085;-95
2024/04/12 19:04:46;;;;;;;6.65;5.60;;;;;;;;;;6347592;22;20382;-95
2024/04/12 19:07:12;;;;;;;14.68;13.18;;;;;;;;;;6348506;22;20006;-95
2024/04/12 19:09:38;;;;;;;15.18;13.25;;;;;;;;;;6348469;22;20002;-94
2024/04/12 19:12:23;;;;;;;12.30;11.27;;;;;;;;;;6349178;22;20086;-94
2024/04/12 19:14:52;;;;;;;21.10;19.35;;;;;;;;;;6347086;22;20048;-95
2024/04/12 19:17:21;;;;;;;19.98;18.27;;;;;;;;;;6348210;22;20244;-93
2024/04/12 19:19:54;;;;;;;17.42;15.95;;;;;;;;;;6347400;22;20003;-95
2024/04/12 19:22:26;;;;;;;15.10;12.45;;;;;;;;;;6346345;22;20010;-96
2024/04/12 19:24:58;;;;;;;12.60;11.30;;;;;;;;;;6346564;22;20035;-93
2024/04/12 19:27:27;;;;;;;14.15;12.32;;;;;;;;;;6353925;22;20003;-94
2024/04/12 19:29:54;;;;;;;12.85;11.15;;;;;;;;;;6350383;22;20052;-96
2024/04/12 19:32:38;;;;;;;15.85;13.10;;;;;;;;;;6343441;22;20017;-96
2024/04/12 19:35:04;;;;;;;13.55;12.30;;;;;;;;;;6357477;22;20003;-96
2024/04/12 19:37:34;;;;;;;16.98;12.98;;;;;;;;;;6357257;22;20002;-95
2024/04/12 19:40:21;;;;;;;14.80;9.80;;;;;;;;;;6356105;22;20011;-94
2024/04/12 19:42:48;;;;;;;12.02;10.45;;;;;;;;;;6329583;22;20021;-94
2024/04/12 19:45:30;;;;;;;11.65;10.43;;;;;;;;;;6355237;22;19999;-95
2024/04/12 19:48:03;;;;;;;12.05;10.70;;;;;;;;;;6342074;22;20002;-95
2024/04/12 19:53:32;;;;;;;12.68;11.48;;;;;;;;;;6340667;22;20010;-94
2024/04/12 19:56:06;;;;;;;14.65;13.35;;;;;;;;;;6339322;22;20013;-93
2024/04/12 19:58:32;;;;;;;15.82;14.57;;;;;;;;;;6338171;22;20007;-96
2024/04/12 20:01:02;;;;;;;12.98;11.77;;;;;;;;;;6339116;22;20014;-95
2024/04/12 20:03:34;;;;;;;14.75;12.48;;;;;;;;;;6338858;22;20018;-95
2024/04/12 20:06:00;;;;;;;14.57;13.23;;;;;;;;;;6339689;22;19998;-94
2024/04/12 20:08:26;;;;;;;25.83;11.05;;;;;;;;;;6341361;22;20007;-94
2024/04/12 20:10:53;;;;;;;11.80;9.60;;;;;;;;;;6340191;22;20693;-94
2024/04/12 20:16:23;;;;;;;15.75;10.27;;;;;;;;;;6341011;22;20020;-95
2024/04/12 20:18:49;;;;;;;12.93;9.30;;;;;;;;;;6341213;22;20003;-95
2024/04/12 20:21:16;;;;;;;13.43;12.23;;;;;;;;;;6339227;22;20003;-95
2024/04/12 20:23:43;;;;;;;11.88;9.15;;;;;;;;;;6339366;22;20028;-95
2024/04/12 20:26:17;;;;;;;11.23;10.13;;;;;;;;;;6341161;22;20010;-94
2024/04/12 20:28:47;;;;;;;9.95;8.88;;;;;;;;;;6342285;22;20058;-96
2024/04/12 20:31:15;;;;;;;12.15;9.90;;;;;;;;;;6341235;22;20383;-96
2024/04/12 20:34:43;;;;;;;11.07;9.80;;;;;;;;;;6341440;22;20009;-96
2024/04/12 20:36:42;;;;;;;12.68;11.05;;;;;;;;;;6333680;22;19999;-96
2024/04/12 20:39:08;;;;;;;13.77;12.57;;;;;;;;;;6343645;22;20006;-95
2024/04/12 20:41:38;;;;;;;10.07;7.35;;;;;;;;;;6367214;22;20010;-94
2024/04/12 20:44:05;;;;;;;10.52;9.13;;;;;;;;;;6365004;22;20014;-94
2024/04/12 20:46:32;;;;;;;16.15;14.70;;;;;;;;;;6361454;22;20002;-95
2024/04/12 20:48:58;;;;;;;14.10;7.07;;;;;;;;;;6342054;22;20010;-95
2024/04/12 20:51:24;;;;;;;12.57;9.68;;;;;;;;;;6340287;22;20003;-95
2024/04/12 20:53:50;;;;;;;9.70;8.68;;;;;;;;;;6342256;22;20002;-95
2024/04/12 20:56:17;;;;;;;10.90;7.53;;;;;;;;;;6342283;22;20003;-96
2024/04/12 20:58:43;;;;;;;9.60;8.70;;;;;;;;;;6347948;22;20064;-96
2024/04/12 21:01:09;;;;;;;8.85;7.68;;;;;;;;;;6345206;22;20013;-96
2024/04/12 21:03:36;;;;;;;12.10;10.40;;;;;;;;;;6343382;22;20011;-96
2024/04/12 21:06:02;;;;;;;10.25;7.07;;;;;;;;;;6345611;22;20003;-96
2024/04/12 21:08:29;;;;;;;19.30;17.80;;;;;;;;;;6344452;22;20010;-96
2024/04/12 21:11:03;;;;;;;12.95;9.18;;;;;;;;;;6343008;22;20006;-96
2024/04/12 21:13:29;;;;;;;13.70;9.57;;;;;;;;;;6342392;22;20021;-96
2024/04/12 21:15:56;;;;;;;11.98;7.72;;;;;;;;;;6346185;22;20003;-95
2024/04/12 21:18:22;;;;;;;12.55;8.32;;;;;;;;;;6342805;22;20007;-96
2024/04/12 21:20:51;;;;;;;8.13;6.28;;;;;;;;;;6341705;22;20031;-96
2024/04/12 21:23:18;;;;;;;10.65;9.55;;;;;;;;;;6340780;22;20038;-95
2024/04/12 21:25:53;;;;;;;11.77;10.52;;;;;;;;;;6344213;22;20420;-95
2024/04/12 21:28:19;;;;;;;12.23;8.63;;;;;;;;;;6340263;22;20018;-95
2024/04/12 21:30:47;;;;;;;15.00;11.75;;;;;;;;;;6339320;22;20085;-96
2024/04/12 21:33:14;;;;;;;15.55;8.00;;;;;;;;;;6341865;22;20428;-94
2024/04/12 21:35:40;;;;;;;9.07;7.50;;;;;;;;;;6339313;22;20003;-94
2024/04/12 21:38:07;;;;;;;10.75;7.65;;;;;;;;;;6338705;22;20007;-94
2024/04/12 21:40:35;;;;;;;12.95;11.80;;;;;;;;;;6339678;22;20007;-95
2024/04/12 21:43:07;;;;;;;10.15;8.27;;;;;;;;;;6339743;22;20014;-94
2024/04/12 21:45:33;;;;;;;12.00;8.20;;;;;;;;;;6342001;22;20086;-95
2024/04/12 21:48:02;;;;;;;17.80;16.13;;;;;;;;;;6340955;22;20003;-95
2024/04/12 21:50:28;;;;;;;13.77;12.52;;;;;;;;;;6340729;22;20015;-96
2024/04/12 21:52:55;;;;;;;22.25;20.50;;;;;;;;;;6341174;22;20499;-95
2024/04/12 21:55:22;;;;;;;21.83;19.85;;;;;;;;;;6340320;22;20396;-94
2024/04/12 21:57:49;;;;;;;18.63;16.95;;;;;;;;;;6344375;22;20007;-95
2024/04/12 22:00:16;;;;;;;13.05;11.85;;;;;;;;;;6343040;22;20007;-95
2024/04/12 22:02:42;;;;;;;20.55;18.92;;;;;;;;;;6343769;22;20011;-95
2024/04/12 22:05:08;;;;;;;12.23;11.13;;;;;;;;;;6347233;22;20003;-95
2024/04/12 22:07:34;;;;;;;19.83;17.85;;;;;;;;;;6342365;22;20011;-95
2024/04/12 22:10:03;;;;;;;14.85;13.45;;;;;;;;;;6343212;22;20007;-96
2024/04/12 22:12:30;;;;;;;13.60;12.32;;;;;;;;;;6342247;22;20003;-95
2024/04/12 22:15:02;;;;;;;19.13;17.15;;;;;;;;;;6345240;22;20003;-96
2024/04/12 22:17:29;;;;;;;8.13;6.63;;;;;;;;;;6343035;22;19998;-95
2024/04/12 22:19:55;;;;;;;10.15;6.82;;;;;;;;;;6344165;22;20003;-96
2024/04/12 22:22:21;;;;;;;7.47;6.78;;;;;;;;;;6340710;22;20007;-94
2024/04/12 22:24:47;;;;;;;14.10;10.45;;;;;;;;;;6341463;22;20006;-94
2024/04/12 22:27:15;;;;;;;19.10;17.52;;;;;;;;;;6341604;22;20003;-95
2024/04/12 22:29:41;;;;;;;12.75;8.52;;;;;;;;;;6342961;22;20056;-94
2024/04/12 22:32:07;;;;;;;12.43;8.25;;;;;;;;;;6342275;22;20010;-94
2024/04/12 22:34:33;;;;;;;12.50;11.30;;;;;;;;;;6351319;22;20063;-93
2024/04/12 22:36:59;;;;;;;20.58;18.85;;;;;;;;;;6349202;22;20105;-94